• Join FlightAware (Why Join?)
  • Login
  • US Flag 
02:58AM EDT


 

Airport Tracker/Info


-or-


 

Live Flight TrackerFlight Track Log ✈ CMF5SP ✈ 06-Nov-2013 ✈ KTEB - KPOU

Flight Track Log - Related Links

Times and Time Zones

All times are in EST time to prevent confusion due to time zone crossing. See the CMF5SP flight status page for this flight to view local times or setup timezone preferences in your user account.

Time Position Orientation Groundspeed Altitude Reporting Facility
EST Latitude Longitude Course Direction KTS MPH feet Rate Location/Type
12:32PM 40.9000 -74.0000 37° Northeast 159 183 1,600  Level New York TRACON
12:33PM 40.9333 -73.9667 37° Northeast 160 184 1,500 -60 Descending New York TRACON
12:34PM 40.9833 -73.9667 360° North 152 175 1,500 300 Level New York TRACON
12:35PM 41.0167 -73.9667 360° North 138 159 2,100 540 Climbing New York TRACON
12:36PM 41.0500 -73.9667 360° North 140 161 2,600 240 Climbing New York TRACON
12:37PM 41.1000 -73.9667 360° North 155 178 2,600 120 Level New York TRACON
12:38PM 41.1333 -73.9500 21° North 139 160 2,900 180 Climbing New York TRACON
12:39PM 41.1667 -73.9500 360° North 153 176 3,000 -180 Climbing New York TRACON
12:40PM 41.2167 -73.9333 14° North 168 193 2,600 -300 Descending New York TRACON
12:41PM 41.2667 -73.9333 360° North 156 180 2,400 -120 Descending New York TRACON
12:42PM 41.3000 -73.9333 360° North 153 176 2,400  Level New York TRACON
12:43PM 41.3500 -73.9167 14° North 152 175 2,400  Level New York TRACON
12:44PM 41.3833 -73.9167 360° North 152 175 2,400  Level New York TRACON
12:45PM 41.4333 -73.9167 360° North 154 177 2,400  Level New York TRACON
12:46PM 41.4667 -73.9000 21° North 155 178 2,500 -60 Climbing New York TRACON
12:47PM 41.5167 -73.9000 360° North 143 165 2,300 -480 Descending New York TRACON
12:48PM 41.5500 -73.9000 360° North 145 167 1,600 -600 Descending New York TRACON
12:49PM 41.5833 -73.8833 21° North 142 163 1,200 -360 Descending New York TRACON
12:50PM 41.6167 -73.8667 20° North 94 108 900 -480 Descending New York TRACON
12:51PM 41.6333 -73.8667 360° North 95 109 300 -600 Descending New York TRACON
12:53PM 41.6167 -73.8833 90° East  Level FlightAware Approximate
01:00PM 41.6266 -73.8842 90° East  Level Estimated
01:01PM 41.6266 -73.8842 90° East  Level Estimated
01:02PM 41.6266 -73.8842 90° East  Level Estimated
01:03PM 41.6266 -73.8842 90° East  Level Estimated
01:04PM 41.6266 -73.8842 90° East  Level Estimated
01:05PM 41.6266 -73.8842 90° East  Level Estimated